createdAt,value
2018-08-03T00:02:01.868Z,35.20
2018-08-03T00:04:36.312Z,34.96
2018-08-03T00:07:13.818Z,34.52
2018-08-03T00:09:46.139Z,34.81
2018-08-03T00:12:21.528Z,34.74
2018-08-03T00:14:56.317Z,34.95
2018-08-03T00:17:33.679Z,34.11
2018-08-03T00:20:10.852Z,34.18
2018-08-03T00:22:49.097Z,34.18
2018-08-03T00:25:32.981Z,33.84
2018-08-03T00:28:08.436Z,33.85
2018-08-03T00:30:45.270Z,33.70
2018-08-03T00:33:22.492Z,33.82
2018-08-03T00:35:53.958Z,34.10
2018-08-03T00:38:28.095Z,34.00
2018-08-03T00:41:09.852Z,34.49
2018-08-03T00:43:43.651Z,34.78
2018-08-03T00:46:17.303Z,33.88
2018-08-03T00:48:51.745Z,34.49
2018-08-03T00:51:26.898Z,34.57
2018-08-03T00:54:01.838Z,34.03
2018-08-03T00:56:37.227Z,33.85
2018-08-03T00:59:10.929Z,34.22
2018-08-03T01:01:51.614Z,34.34
2018-08-03T01:04:24.262Z,34.70
2018-08-03T01:06:59.751Z,34.38
2018-08-03T01:09:31.582Z,34.37
2018-08-03T01:12:04.330Z,34.21
2018-08-03T01:14:35.760Z,34.58
2018-08-03T01:17:08.069Z,34.41
2018-08-03T01:19:41.876Z,34.84
2018-08-03T01:22:16.736Z,35.26
2018-08-03T01:24:50.627Z,34.60
2018-08-03T01:27:28.244Z,34.52
2018-08-03T01:30:05.358Z,34.56
2018-08-03T01:32:37.248Z,34.15
2018-08-03T01:35:09.112Z,34.44
2018-08-03T01:37:41.616Z,34.82
2018-08-03T01:40:19.136Z,34.62
2018-08-03T01:42:50.927Z,34.77
2018-08-03T01:45:27.433Z,35.30
2018-08-03T01:48:00.342Z,34.58
2018-08-03T01:50:31.406Z,35.36
2018-08-03T01:53:06.464Z,35.49
2018-08-03T01:55:39.093Z,35.48
2018-08-03T01:58:15.644Z,35.61
2018-08-03T02:00:54.680Z,35.23
2018-08-03T02:03:35.847Z,35.27
2018-08-03T02:06:10.978Z,36.02
2018-08-03T02:08:44.239Z,35.58
2018-08-03T02:11:19.870Z,36.43
2018-08-03T02:13:56.529Z,36.63
2018-08-03T02:16:42.232Z,36.12
2018-08-03T02:19:14.858Z,36.52
2018-08-03T02:21:48.108Z,36.64
2018-08-03T02:24:22.140Z,36.85
2018-08-03T02:26:55.108Z,36.68
2018-08-03T02:29:30.925Z,36.93
2018-08-03T02:32:08.962Z,37.00
2018-08-03T02:34:42.336Z,36.18
2018-08-03T02:37:14.117Z,37.08
2018-08-03T02:39:48.700Z,36.34
2018-08-03T02:42:23.779Z,37.36
2018-08-03T02:44:56.516Z,37.35
2018-08-03T02:47:32.044Z,37.20
2018-08-03T02:52:41.098Z,37.19
2018-08-03T02:55:15.449Z,36.83
2018-08-03T02:57:47.391Z,37.22
2018-08-03T03:00:24.941Z,36.97
2018-08-03T03:02:57.670Z,37.30
2018-08-03T03:05:30.762Z,36.90
2018-08-03T03:08:01.608Z,37.16
2018-08-03T03:10:35.095Z,38.04
2018-08-03T03:13:09.323Z,37.95
2018-08-03T03:15:46.073Z,38.09
2018-08-03T03:18:24.909Z,37.40
2018-08-03T03:21:01.606Z,37.90
2018-08-03T03:23:35.596Z,37.27
2018-08-03T03:26:09.851Z,37.74
2018-08-03T03:28:43.764Z,38.85
2018-08-03T03:31:22.356Z,38.80
2018-08-03T03:34:02.100Z,39.14
2018-08-03T03:36:42.440Z,39.30
2018-08-03T03:39:22.084Z,38.66
2018-08-03T03:41:56.009Z,38.41
2018-08-03T03:44:28.162Z,39.29
2018-08-03T03:46:59.310Z,39.08
2018-08-03T03:49:31.981Z,38.99
2018-08-03T03:52:06.566Z,39.14
2018-08-03T03:54:38.139Z,39.06
2018-08-03T03:57:10.366Z,39.17
2018-08-03T03:59:42.793Z,39.35
2018-08-03T04:02:15.430Z,39.37
2018-08-03T04:04:47.851Z,39.15
2018-08-03T04:07:19.715Z,39.82
2018-08-03T04:09:50.944Z,39.17
2018-08-03T04:12:23.234Z,39.59
2018-08-03T04:14:55.713Z,39.74
2018-08-03T04:17:27.719Z,40.12
2018-08-03T04:19:59.147Z,40.34
2018-08-03T04:22:32.485Z,39.06
2018-08-03T04:25:08.605Z,38.80
2018-08-03T04:27:43.939Z,38.32
2018-08-03T04:30:19.424Z,38.36
2018-08-03T04:32:52.804Z,38.11
2018-08-03T04:35:26.577Z,38.28
2018-08-03T04:37:59.260Z,37.53
2018-08-03T04:40:34.861Z,37.43
2018-08-03T04:43:07.474Z,37.12
2018-08-03T04:45:39.579Z,36.88
2018-08-03T04:48:13.633Z,36.87
2018-08-03T04:50:47.331Z,36.27
2018-08-03T04:53:18.589Z,36.47
2018-08-03T04:55:51.493Z,35.82
2018-08-03T04:58:22.884Z,36.35
2018-08-03T05:00:54.386Z,35.66
2018-08-03T05:03:28.658Z,35.06
2018-08-03T05:06:01.391Z,34.78
2018-08-03T05:08:33.160Z,33.76
2018-08-03T05:11:07.280Z,34.09
2018-08-03T05:13:40.713Z,34.25
2018-08-03T05:16:15.572Z,33.50
2018-08-03T05:18:48.997Z,32.85
2018-08-03T05:21:21.796Z,33.00
2018-08-03T05:23:55.365Z,32.27
2018-08-03T05:26:27.327Z,31.78
2018-08-03T05:29:00.816Z,31.83
2018-08-03T05:31:33.575Z,32.02
2018-08-03T05:34:05.628Z,30.69
2018-08-03T05:36:36.525Z,31.33
2018-08-03T05:39:10.244Z,30.18
2018-08-03T05:41:42.226Z,30.68
2018-08-03T05:44:17.344Z,30.90
2018-08-03T05:46:54.252Z,29.74
2018-08-03T05:49:25.889Z,29.85
2018-08-03T05:51:57.712Z,29.17
2018-08-03T05:54:30.723Z,29.12
2018-08-03T05:57:23.166Z,28.28
2018-08-03T05:59:59.185Z,28.07
2018-08-03T06:02:30.508Z,28.08
2018-08-03T06:05:02.861Z,27.61
2018-08-03T06:07:35.051Z,27.23
2018-08-03T06:10:08.455Z,27.08
2018-08-03T06:12:41.986Z,27.46
2018-08-03T06:15:18.980Z,26.94
2018-08-03T06:17:55.809Z,26.40
2018-08-03T06:20:30.937Z,26.66
2018-08-03T06:23:01.914Z,26.25
2018-08-03T06:25:35.389Z,26.04
2018-08-03T06:28:07.208Z,27.17
2018-08-03T06:30:41.639Z,26.90
2018-08-03T06:33:14.182Z,26.62
2018-08-03T06:35:45.164Z,26.14
2018-08-03T06:38:18.390Z,24.88
2018-08-03T06:40:54.334Z,25.71
2018-08-03T06:43:29.098Z,25.93
2018-08-03T06:46:03.742Z,25.93
2018-08-03T06:48:35.991Z,25.16
2018-08-03T06:51:11.634Z,25.93
2018-08-03T06:53:46.153Z,25.18
2018-08-03T06:56:20.036Z,25.49
2018-08-03T06:58:54.524Z,26.16
2018-08-03T07:01:29.441Z,24.96
2018-08-03T07:04:04.289Z,23.92
2018-08-03T07:06:39.170Z,24.40
2018-08-03T07:09:14.293Z,24.39
2018-08-03T07:11:48.449Z,25.10
2018-08-03T07:14:23.222Z,24.34
2018-08-03T07:16:57.879Z,24.00
2018-08-03T07:19:35.866Z,23.89
2018-08-03T07:22:09.861Z,23.98
2018-08-03T07:24:44.735Z,23.96
2018-08-03T07:27:19.434Z,23.89
2018-08-03T07:29:53.892Z,22.82
2018-08-03T07:32:27.989Z,22.85
2018-08-03T07:35:01.558Z,22.79
2018-08-03T07:37:35.467Z,24.11
2018-08-03T07:40:15.100Z,23.63
2018-08-03T07:42:49.226Z,23.08
2018-08-03T07:45:28.363Z,22.66
2018-08-03T07:48:03.381Z,22.84
2018-08-03T07:50:38.344Z,22.04
2018-08-03T07:53:20.537Z,22.58
2018-08-03T07:55:58.842Z,22.79
2018-08-03T07:58:33.792Z,21.95
2018-08-03T08:01:07.784Z,21.19
2018-08-03T08:03:42.425Z,21.33
2018-08-03T08:06:23.035Z,21.01
2018-08-03T08:09:00.365Z,20.23
2018-08-03T08:11:37.066Z,20.56
2018-08-03T08:14:18.367Z,20.31
2018-08-03T08:16:58.309Z,20.15
2018-08-03T08:19:42.235Z,20.11
2018-08-03T08:22:19.404Z,20.89
2018-08-03T08:24:54.929Z,21.20
2018-08-03T08:27:30.236Z,20.59
2018-08-03T08:30:12.977Z,20.86
2018-08-03T08:32:48.292Z,20.48
2018-08-03T08:35:24.332Z,21.08
2018-08-03T08:37:58.942Z,20.16
2018-08-03T08:40:42.291Z,19.47
2018-08-03T08:43:19.040Z,19.96
2018-08-03T08:45:53.005Z,19.25
2018-08-03T08:48:38.478Z,19.46
2018-08-03T08:51:16.620Z,19.62
2018-08-03T08:53:56.182Z,19.18
2018-08-03T08:56:38.321Z,19.46
2018-08-03T08:59:10.980Z,19.42
2018-08-03T09:01:43.575Z,20.28
2018-08-03T09:04:18.825Z,19.72
2018-08-03T09:07:01.171Z,20.34
2018-08-03T09:09:36.319Z,20.99
2018-08-03T09:12:15.980Z,21.34
2018-08-03T09:14:55.426Z,20.41
2018-08-03T09:17:35.277Z,21.02
2018-08-03T09:20:09.473Z,20.60
2018-08-03T09:22:42.769Z,20.54
2018-08-03T09:25:16.191Z,20.64
2018-08-03T09:27:51.597Z,20.31
2018-08-03T09:30:27.415Z,20.64
2018-08-03T09:33:03.579Z,20.93
2018-08-03T09:35:39.810Z,20.60
2018-08-03T09:38:13.487Z,19.55
2018-08-03T09:40:47.731Z,19.75
2018-08-03T09:43:25.937Z,20.82
2018-08-03T09:46:01.524Z,20.62
2018-08-03T09:48:35.664Z,20.28
2018-08-03T09:51:15.473Z,20.28
2018-08-03T09:53:51.590Z,20.14
2018-08-03T09:56:25.654Z,19.53
2018-08-03T09:59:00.537Z,19.19
2018-08-03T10:01:37.085Z,19.38
2018-08-03T10:04:12.839Z,19.68
2018-08-03T10:06:53.956Z,19.45
2018-08-03T10:09:29.288Z,19.19
2018-08-03T10:12:16.152Z,18.80
2018-08-03T10:14:56.566Z,19.10
2018-08-03T10:17:35.247Z,19.03
2018-08-03T10:20:14.811Z,18.61
2018-08-03T10:22:51.315Z,18.66
2018-08-03T10:25:26.742Z,18.42
2018-08-03T10:28:03.012Z,18.46
2018-08-03T10:30:41.024Z,19.29
2018-08-03T10:33:15.992Z,17.93
2018-08-03T10:35:55.656Z,17.48
2018-08-03T10:38:29.227Z,17.37
2018-08-03T10:41:05.457Z,17.58
2018-08-03T10:43:40.395Z,17.99
2018-08-03T10:46:18.273Z,16.92
2018-08-03T10:48:54.059Z,16.27
2018-08-03T10:51:32.792Z,16.13
2018-08-03T10:54:08.352Z,16.41
2018-08-03T10:56:42.497Z,15.87
2018-08-03T10:59:17.519Z,15.89
2018-08-03T11:01:51.488Z,15.64
2018-08-03T11:04:29.571Z,15.88
2018-08-03T11:07:06.790Z,16.13
2018-08-03T11:09:44.787Z,16.66
2018-08-03T11:12:18.445Z,16.26
2018-08-03T11:14:51.340Z,15.76
2018-08-03T11:17:34.705Z,16.56
2018-08-03T11:20:10.891Z,15.57
2018-08-03T11:22:46.942Z,15.12
2018-08-03T11:25:26.962Z,15.09
2018-08-03T11:28:04.874Z,14.96
2018-08-03T11:31:03.400Z,14.01
2018-08-03T11:33:37.026Z,14.04
2018-08-03T11:36:16.682Z,15.24
2018-08-03T11:38:52.101Z,14.89
2018-08-03T11:41:33.617Z,14.46
2018-08-03T11:44:13.343Z,14.82
2018-08-03T11:46:49.200Z,15.15
2018-08-03T11:49:23.610Z,14.41
2018-08-03T11:51:58.963Z,14.51
2018-08-03T11:54:34.515Z,14.50
2018-08-03T11:57:16.778Z,14.28
2018-08-03T11:59:52.319Z,14.19
2018-08-03T12:02:28.323Z,14.11
2018-08-03T12:05:05.377Z,13.79
2018-08-03T12:07:47.021Z,13.96
2018-08-03T12:10:23.951Z,12.99
2018-08-03T12:12:58.389Z,13.42
2018-08-03T12:15:38.681Z,13.49
2018-08-03T12:18:15.733Z,13.38
2018-08-03T12:20:48.835Z,14.12
2018-08-03T12:23:22.856Z,14.19
2018-08-03T12:25:56.148Z,13.92
2018-08-03T12:28:32.075Z,13.70
2018-08-03T12:31:08.471Z,12.93
2018-08-03T12:33:44.423Z,12.46
2018-08-03T12:36:22.397Z,12.61
2018-08-03T12:38:56.521Z,12.78
2018-08-03T12:41:31.452Z,13.08
2018-08-03T12:44:09.230Z,13.18
2018-08-03T12:46:48.212Z,13.43
2018-08-03T12:49:29.917Z,12.85
2018-08-03T12:52:06.472Z,13.62
2018-08-03T12:54:47.514Z,13.56
2018-08-03T12:57:30.176Z,14.01
2018-08-03T13:00:15.801Z,13.56
2018-08-03T13:02:57.236Z,13.22
2018-08-03T13:05:31.563Z,13.21
2018-08-03T13:08:06.735Z,12.81
2018-08-03T13:10:42.794Z,12.24
2018-08-03T13:13:14.953Z,11.75
2018-08-03T13:15:58.079Z,12.12
2018-08-03T13:18:36.664Z,11.57
2018-08-03T13:21:20.693Z,12.16
2018-08-03T13:24:05.443Z,12.58
2018-08-03T13:26:46.773Z,12.41
2018-08-03T13:29:24.759Z,13.10
2018-08-03T13:32:06.766Z,12.01
2018-08-03T13:34:40.448Z,12.03
2018-08-03T13:37:14.410Z,12.72
2018-08-03T13:39:47.733Z,12.13
2018-08-03T13:42:20.351Z,12.13
2018-08-03T13:44:53.628Z,12.31
2018-08-03T13:47:26.019Z,12.07
2018-08-03T13:49:59.733Z,11.58
2018-08-03T13:52:33.943Z,12.34
2018-08-03T13:55:08.444Z,12.41
2018-08-03T13:57:42.657Z,12.04
2018-08-03T14:00:28.538Z,12.00
2018-08-03T14:03:07.716Z,11.92
2018-08-03T14:05:46.647Z,11.84
2018-08-03T14:08:23.384Z,12.43
2018-08-03T14:11:03.976Z,12.21
2018-08-03T14:13:39.281Z,12.66
2018-08-03T14:16:16.957Z,12.45
2018-08-03T14:18:51.301Z,12.40
2018-08-03T14:21:26.084Z,11.84
2018-08-03T14:23:59.491Z,11.74
2018-08-03T14:26:36.588Z,12.49
2018-08-03T14:29:12.289Z,11.97
2018-08-03T14:31:55.166Z,11.47
2018-08-03T14:34:33.146Z,11.74
2018-08-03T14:37:07.221Z,11.27
2018-08-03T14:39:47.614Z,11.14
2018-08-03T14:42:28.695Z,10.81
2018-08-03T14:45:05.308Z,11.07
2018-08-03T14:47:47.696Z,10.80
2018-08-03T14:50:29.807Z,10.25
2018-08-03T14:53:08.354Z,10.64
2018-08-03T14:55:45.012Z,10.56
2018-08-03T14:58:20.659Z,10.71
2018-08-03T15:01:02.441Z,10.68
2018-08-03T15:03:36.084Z,11.06
2018-08-03T15:06:13.018Z,10.96
2018-08-03T15:08:48.870Z,10.42
2018-08-03T15:11:23.541Z,10.27
2018-08-03T15:13:56.445Z,10.56
2018-08-03T15:16:30.258Z,11.00
2018-08-03T15:19:06.268Z,11.05
2018-08-03T15:21:39.729Z,10.62
2018-08-03T15:24:15.657Z,10.84
2018-08-03T15:26:50.039Z,11.50
2018-08-03T15:29:21.842Z,11.07
2018-08-03T15:31:55.996Z,10.63
2018-08-03T15:34:35.251Z,11.16
2018-08-03T15:37:17.619Z,11.29
2018-08-03T15:39:53.948Z,10.46
2018-08-03T15:42:29.433Z,10.29
2018-08-03T15:45:06.173Z,10.38
2018-08-03T15:47:44.540Z,10.13
2018-08-03T15:50:21.929Z,9.77
2018-08-03T15:52:58.949Z,9.62
2018-08-03T15:55:36.640Z,10.28
2018-08-03T15:58:12.110Z,9.96
2018-08-03T16:00:47.851Z,10.44
2018-08-03T16:03:24.383Z,9.46
2018-08-03T16:06:01.081Z,9.65
2018-08-03T16:08:40.256Z,9.58
2018-08-03T16:11:16.990Z,9.72
2018-08-03T16:13:53.036Z,9.87
2018-08-03T16:16:26.772Z,9.81
2018-08-03T16:19:03.963Z,9.59
2018-08-03T16:21:39.082Z,9.02
2018-08-03T16:24:14.121Z,9.28
2018-08-03T16:26:48.896Z,8.73
2018-08-03T16:29:25.717Z,9.12
2018-08-03T16:31:59.435Z,9.95
2018-08-03T16:34:33.595Z,9.74
2018-08-03T16:37:10.248Z,9.54
2018-08-03T16:39:44.412Z,10.02
2018-08-03T16:42:20.775Z,9.79
2018-08-03T16:44:54.717Z,9.48
2018-08-03T16:47:30.887Z,10.21
2018-08-03T16:50:05.049Z,9.86
2018-08-03T16:52:45.222Z,9.82
2018-08-03T16:55:20.958Z,10.11
2018-08-03T16:57:53.048Z,10.21
2018-08-03T17:03:09.304Z,10.78
2018-08-03T17:05:46.962Z,10.87
2018-08-03T17:08:23.075Z,10.91
2018-08-03T17:10:59.514Z,9.99
2018-08-03T17:13:35.925Z,10.35
2018-08-03T17:16:13.397Z,10.68
2018-08-03T17:19:10.779Z,10.88
2018-08-03T17:21:45.453Z,10.12
2018-08-03T17:24:18.461Z,10.41
2018-08-03T17:26:51.766Z,9.86
2018-08-03T17:29:28.165Z,10.92
2018-08-03T17:32:04.056Z,10.38
2018-08-03T17:34:38.805Z,9.83
2018-08-03T17:37:15.298Z,10.19
2018-08-03T17:39:52.254Z,10.25
2018-08-03T17:42:26.992Z,9.81
2018-08-03T17:45:01.752Z,11.08
2018-08-03T17:47:36.560Z,10.45
2018-08-03T17:50:13.301Z,10.17
2018-08-03T17:52:46.651Z,11.29
2018-08-03T17:55:21.957Z,11.01
2018-08-03T17:58:02.130Z,11.15
2018-08-03T18:00:43.676Z,12.20
2018-08-03T18:03:22.047Z,12.40
2018-08-03T18:05:56.963Z,12.91
2018-08-03T18:08:35.641Z,12.54
2018-08-03T18:11:11.856Z,13.24
2018-08-03T18:13:50.098Z,13.53
2018-08-03T18:16:26.388Z,13.57
2018-08-03T18:19:09.077Z,14.11
2018-08-03T18:21:54.476Z,14.18
2018-08-03T18:24:37.510Z,14.19
2018-08-03T18:27:15.699Z,14.90
2018-08-03T18:29:53.540Z,14.79
2018-08-03T18:32:31.366Z,14.56
2018-08-03T18:35:11.048Z,15.47
2018-08-03T18:37:46.863Z,14.91
2018-08-03T18:40:20.727Z,15.17
2018-08-03T18:42:54.506Z,15.61
2018-08-03T18:45:32.041Z,15.92
2018-08-03T18:48:10.684Z,15.83
2018-08-03T18:50:49.521Z,16.28
2018-08-03T18:53:24.980Z,16.21
2018-08-03T18:56:00.368Z,17.44
2018-08-03T18:58:34.355Z,18.16
2018-08-03T19:01:12.471Z,18.30
2018-08-03T19:03:47.691Z,18.38
2018-08-03T19:06:20.668Z,18.70
2018-08-03T19:08:53.003Z,18.73
2018-08-03T19:11:29.284Z,18.67
2018-08-03T19:14:02.508Z,19.05
2018-08-03T19:16:37.193Z,18.17
2018-08-03T19:19:08.146Z,18.11
2018-08-03T19:21:40.918Z,18.70
2018-08-03T19:24:15.577Z,19.25
2018-08-03T19:26:51.350Z,19.16
2018-08-03T19:29:31.674Z,19.48
2018-08-03T19:32:04.214Z,19.22
2018-08-03T19:34:42.085Z,18.82
2018-08-03T19:37:15.144Z,19.28
2018-08-03T19:39:47.787Z,18.94
2018-08-03T19:42:31.051Z,19.01
2018-08-03T19:45:14.387Z,19.50
2018-08-03T19:50:59.609Z,19.56
2018-08-03T19:53:34.384Z,19.45
2018-08-03T19:56:14.119Z,19.56
2018-08-03T19:58:47.789Z,19.43
2018-08-03T20:01:28.913Z,19.94
2018-08-03T20:04:07.621Z,19.58
2018-08-03T20:06:48.887Z,19.43
2018-08-03T20:09:21.478Z,20.17
2018-08-03T20:11:55.979Z,20.28
2018-08-03T20:14:32.194Z,20.11
2018-08-03T20:17:22.398Z,19.63
2018-08-03T20:20:05.283Z,20.48
2018-08-03T20:22:37.519Z,20.68
2018-08-03T20:25:18.865Z,20.53
2018-08-03T20:27:57.648Z,20.48
2018-08-03T20:30:37.588Z,20.60
2018-08-03T20:33:11.198Z,19.98
2018-08-03T20:35:42.553Z,20.08
2018-08-03T20:38:16.310Z,20.58
2018-08-03T20:40:49.878Z,21.00
2018-08-03T20:43:23.481Z,20.75
2018-08-03T20:46:03.857Z,20.27
2018-08-03T20:48:41.961Z,20.37
2018-08-03T20:51:18.600Z,20.85
2018-08-03T20:53:54.803Z,20.46
2018-08-03T20:56:35.896Z,20.83
2018-08-03T20:59:10.595Z,20.69
2018-08-03T21:01:49.828Z,20.85
2018-08-03T21:04:25.106Z,20.33
2018-08-03T21:06:59.751Z,20.91
2018-08-03T21:09:31.319Z,21.08
2018-08-03T21:12:07.683Z,20.49
2018-08-03T21:14:40.117Z,20.18
2018-08-03T21:17:12.947Z,20.79
2018-08-03T21:19:48.776Z,20.57
2018-08-03T21:22:21.476Z,20.75
2018-08-03T21:24:59.847Z,21.31
2018-08-03T21:27:35.694Z,21.20
2018-08-03T21:30:18.767Z,20.63
2018-08-03T21:33:02.058Z,20.82
2018-08-03T21:35:41.108Z,20.85
2018-08-03T21:38:13.862Z,21.12
2018-08-03T21:40:49.160Z,20.76
2018-08-03T21:43:22.430Z,21.00
2018-08-03T21:46:06.531Z,20.88
2018-08-03T21:48:47.733Z,20.91
2018-08-03T21:51:31.131Z,21.06
2018-08-03T21:54:09.811Z,20.36
2018-08-03T21:56:49.421Z,20.65
2018-08-03T21:59:27.891Z,21.22
2018-08-03T22:02:15.798Z,20.36
2018-08-03T22:05:03.174Z,20.94
2018-08-03T22:07:49.860Z,20.47
2018-08-03T22:10:27.454Z,20.52
2018-08-03T22:13:01.313Z,20.14
2018-08-03T22:15:33.379Z,19.92
2018-08-03T22:18:05.420Z,20.26
2018-08-03T22:20:39.538Z,20.46
2018-08-03T22:23:12.684Z,20.07
2018-08-03T22:25:44.371Z,20.23
2018-08-03T22:28:18.013Z,20.78
2018-08-03T22:30:50.106Z,21.14
2018-08-03T22:33:24.345Z,20.57
2018-08-03T22:36:00.964Z,20.91
2018-08-03T22:38:38.381Z,21.15
2018-08-03T22:41:14.073Z,20.85
2018-08-03T22:43:48.421Z,21.71
2018-08-03T22:46:24.213Z,22.21
2018-08-03T22:48:56.524Z,21.82
2018-08-03T22:57:30.255Z,22.85
2018-08-03T23:00:05.203Z,22.50
2018-08-03T23:02:39.464Z,23.10
2018-08-03T23:05:12.498Z,22.30
2018-08-03T23:07:43.262Z,22.39
2018-08-03T23:16:14.720Z,23.33
2018-08-03T23:18:49.164Z,23.96
2018-08-03T23:21:22.781Z,23.76
2018-08-03T23:29:50.013Z,24.92
2018-08-03T23:32:20.453Z,24.33
2018-08-03T23:34:51.361Z,25.15
2018-08-03T23:37:23.319Z,25.01
2018-08-03T23:39:56.523Z,25.39
2018-08-03T23:42:28.850Z,24.94
2018-08-03T23:44:59.318Z,24.77
2018-08-03T23:47:29.815Z,25.17
2018-08-03T23:50:00.526Z,25.26
2018-08-03T23:52:31.004Z,25.52
2018-08-03T23:55:02.066Z,26.08
2018-08-03T23:57:34.156Z,26.47
